If you wish to contribute or participate in the discussions about articles you are invited to join SKYbrary as a registered user

 Actions

Idaho Falls Regional Airport

From SKYbrary Wiki

KIDA
Airport
ICAO: KIDA
Summary
Name Idaho Falls Regional Airport
Region North America
Territory United States US.gif
Location Idaho Falls, Idaho
Serving
Coordinates 43° 30' 49.40" N, 112° 4' 14.70" W
Runways
Designator Length Width Surface ROPS
2/20 2744 m9,002.625 ft
46 m150.919 ft
ASP yes/yes
17/35 1235 m4,051.837 ft
23 m75.459 ft
ASP yes/yes


METAR
Observation KIDA 221853Z 22015KT 10SM BKN080 OVC110 08/02 A3023 RMK AO2 SLP237 T00780022
Station Idaho Falls, Fanning Field
Date/Time 22 October 2019 18:53:00
Wind direction 220°
Wind speed 15 kts
Lowest cloud amount broken clouds
Temperature 7.8°C
Dew point 2.2°C
Humidity 67%
QNH hPa
Weather condition n/a

CFIT
Tag(s) Altimeter Temperature Error Correction
RE
Tag(s) Hot and High Operations

Idaho Falls Regional Airport

ICAO: KIDA IATA: IDA

Description

Idaho Falls Regional Airport is a public-use airport located 4 km2.16 nm
4,000 m
13,123.36 ft
northwest of the central business district of Idaho Falls, a city in Bonneville County, Idaho.

Climatology

Continental climate (Köppen climate classification DFb) with cold winters and warm, dry summers.

Maps

Terrain

Loading map...

Airport Layout

Loading map...


Accidents & Serious Incidents at or in vicinity of KIDA

None on SKYbrary